sensor_id;sensor_type;location;lat;lon;timestamp;P1;durP1;ratioP1;P2;durP2;ratioP2
6638;SDS011;3355;52.882;8.430;2024-01-06T00:00:12;7.13;;;5.47;;
6638;SDS011;3355;52.882;8.430;2024-01-06T00:02:41;6.37;;;5.00;;
6638;SDS011;3355;52.882;8.430;2024-01-06T00:05:09;6.73;;;5.00;;
6638;SDS011;3355;52.882;8.430;2024-01-06T00:07:36;7.40;;;5.87;;
6638;SDS011;3355;52.882;8.430;2024-01-06T00:10:03;6.03;;;5.07;;
6638;SDS011;3355;52.882;8.430;2024-01-06T00:12:30;5.97;;;4.87;;
6638;SDS011;3355;52.882;8.430;2024-01-06T00:14:58;5.90;;;4.70;;
6638;SDS011;3355;52.882;8.430;2024-01-06T00:17:24;5.10;;;4.60;;
6638;SDS011;3355;52.882;8.430;2024-01-06T00:19:52;6.00;;;4.87;;
6638;SDS011;3355;52.882;8.430;2024-01-06T00:22:21;6.60;;;5.00;;
6638;SDS011;3355;52.882;8.430;2024-01-06T00:24:48;6.30;;;5.17;;
6638;SDS011;3355;52.882;8.430;2024-01-06T00:27:15;6.50;;;4.30;;
6638;SDS011;3355;52.882;8.430;2024-01-06T00:29:42;5.67;;;4.67;;
6638;SDS011;3355;52.882;8.430;2024-01-06T00:32:09;4.83;;;3.80;;
6638;SDS011;3355;52.882;8.430;2024-01-06T00:34:35;5.40;;;4.80;;
6638;SDS011;3355;52.882;8.430;2024-01-06T00:37:03;5.70;;;5.03;;
6638;SDS011;3355;52.882;8.430;2024-01-06T00:39:31;5.40;;;4.30;;
6638;SDS011;3355;52.882;8.430;2024-01-06T00:41:58;5.53;;;5.00;;
6638;SDS011;3355;52.882;8.430;2024-01-06T00:44:25;6.23;;;5.23;;
6638;SDS011;3355;52.882;8.430;2024-01-06T00:46:52;5.17;;;4.30;;
6638;SDS011;3355;52.882;8.430;2024-01-06T00:49:18;5.50;;;4.60;;
6638;SDS011;3355;52.882;8.430;2024-01-06T00:51:45;4.70;;;3.90;;
6638;SDS011;3355;52.882;8.430;2024-01-06T00:54:13;6.60;;;5.07;;
6638;SDS011;3355;52.882;8.430;2024-01-06T00:56:44;6.47;;;5.20;;
6638;SDS011;3355;52.882;8.430;2024-01-06T00:59:10;7.80;;;5.67;;
6638;SDS011;3355;52.882;8.430;2024-01-06T01:01:37;5.93;;;4.80;;
6638;SDS011;3355;52.882;8.430;2024-01-06T01:04:04;5.07;;;4.57;;
6638;SDS011;3355;52.882;8.430;2024-01-06T01:06:31;8.47;;;4.87;;
6638;SDS011;3355;52.882;8.430;2024-01-06T01:08:58;6.40;;;5.53;;
6638;SDS011;3355;52.882;8.430;2024-01-06T01:11:24;6.53;;;5.10;;
6638;SDS011;3355;52.882;8.430;2024-01-06T01:13:53;6.67;;;5.07;;
6638;SDS011;3355;52.882;8.430;2024-01-06T01:16:20;5.60;;;4.13;;
6638;SDS011;3355;52.882;8.430;2024-01-06T01:18:46;6.57;;;4.97;;
6638;SDS011;3355;52.882;8.430;2024-01-06T01:21:14;7.87;;;5.83;;
6638;SDS011;3355;52.882;8.430;2024-01-06T01:23:41;6.47;;;5.00;;
6638;SDS011;3355;52.882;8.430;2024-01-06T01:26:08;6.17;;;5.37;;
6638;SDS011;3355;52.882;8.430;2024-01-06T01:28:35;6.93;;;5.70;;
6638;SDS011;3355;52.882;8.430;2024-01-06T01:31:04;6.77;;;5.33;;
6638;SDS011;3355;52.882;8.430;2024-01-06T01:33:31;6.90;;;5.10;;
6638;SDS011;3355;52.882;8.430;2024-01-06T01:35:58;7.23;;;5.50;;
6638;SDS011;3355;52.882;8.430;2024-01-06T01:38:25;6.77;;;5.20;;
6638;SDS011;3355;52.882;8.430;2024-01-06T01:40:52;6.83;;;5.00;;
6638;SDS011;3355;52.882;8.430;2024-01-06T01:43:18;5.60;;;4.67;;
6638;SDS011;3355;52.882;8.430;2024-01-06T01:45:47;7.57;;;5.23;;
6638;SDS011;3355;52.882;8.430;2024-01-06T01:48:19;6.03;;;5.27;;
6638;SDS011;3355;52.882;8.430;2024-01-06T01:50:46;8.30;;;6.20;;
6638;SDS011;3355;52.882;8.430;2024-01-06T01:53:13;6.90;;;5.87;;
6638;SDS011;3355;52.882;8.430;2024-01-06T01:55:40;7.57;;;5.47;;
6638;SDS011;3355;52.882;8.430;2024-01-06T01:58:09;6.03;;;5.03;;
6638;SDS011;3355;52.882;8.430;2024-01-06T02:00:36;7.80;;;5.53;;
6638;SDS011;3355;52.882;8.430;2024-01-06T02:03:04;9.80;;;5.80;;
6638;SDS011;3355;52.882;8.430;2024-01-06T02:05:33;7.30;;;5.83;;
6638;SDS011;3355;52.882;8.430;2024-01-06T02:08:00;6.37;;;4.73;;
6638;SDS011;3355;52.882;8.430;2024-01-06T02:10:26;5.67;;;5.07;;
6638;SDS011;3355;52.882;8.430;2024-01-06T02:12:54;5.30;;;4.80;;
6638;SDS011;3355;52.882;8.430;2024-01-06T02:15:21;6.93;;;5.27;;
6638;SDS011;3355;52.882;8.430;2024-01-06T02:17:48;6.33;;;4.97;;
6638;SDS011;3355;52.882;8.430;2024-01-06T02:20:15;6.20;;;5.30;;
6638;SDS011;3355;52.882;8.430;2024-01-06T02:22:46;6.13;;;4.77;;
6638;SDS011;3355;52.882;8.430;2024-01-06T02:25:13;6.30;;;4.87;;
6638;SDS011;3355;52.882;8.430;2024-01-06T02:27:40;6.47;;;4.80;;
6638;SDS011;3355;52.882;8.430;2024-01-06T02:30:07;6.30;;;4.70;;
6638;SDS011;3355;52.882;8.430;2024-01-06T02:32:34;7.40;;;5.70;;
6638;SDS011;3355;52.882;8.430;2024-01-06T02:35:01;6.00;;;4.87;;
6638;SDS011;3355;52.882;8.430;2024-01-06T02:37:28;5.80;;;4.50;;
6638;SDS011;3355;52.882;8.430;2024-01-06T02:39:57;5.93;;;5.23;;
6638;SDS011;3355;52.882;8.430;2024-01-06T02:42:23;6.10;;;4.13;;
6638;SDS011;3355;52.882;8.430;2024-01-06T02:44:50;5.40;;;4.37;;
6638;SDS011;3355;52.882;8.430;2024-01-06T02:47:17;6.27;;;4.23;;
6638;SDS011;3355;52.882;8.430;2024-01-06T02:49:44;5.03;;;4.00;;
6638;SDS011;3355;52.882;8.430;2024-01-06T02:52:10;5.73;;;4.27;;
6638;SDS011;3355;52.882;8.430;2024-01-06T02:54:38;4.63;;;4.13;;
6638;SDS011;3355;52.882;8.430;2024-01-06T02:57:06;5.47;;;4.60;;
6638;SDS011;3355;52.882;8.430;2024-01-06T02:59:33;4.37;;;3.37;;
6638;SDS011;3355;52.882;8.430;2024-01-06T03:02:00;6.67;;;4.60;;
6638;SDS011;3355;52.882;8.430;2024-01-06T03:04:29;6.03;;;4.33;;
6638;SDS011;3355;52.882;8.430;2024-01-06T03:06:55;5.70;;;3.70;;
6638;SDS011;3355;52.882;8.430;2024-01-06T03:09:22;5.17;;;4.40;;
6638;SDS011;3355;52.882;8.430;2024-01-06T03:11:49;4.40;;;3.60;;
6638;SDS011;3355;52.882;8.430;2024-01-06T03:14:17;6.00;;;4.13;;
6638;SDS011;3355;52.882;8.430;2024-01-06T03:16:44;4.40;;;3.73;;
6638;SDS011;3355;52.882;8.430;2024-01-06T03:19:11;4.63;;;3.80;;
6638;SDS011;3355;52.882;8.430;2024-01-06T03:21:38;4.33;;;3.43;;
6638;SDS011;3355;52.882;8.430;2024-01-06T03:24:06;3.80;;;3.40;;
6638;SDS011;3355;52.882;8.430;2024-01-06T03:26:34;5.53;;;3.70;;
6638;SDS011;3355;52.882;8.430;2024-01-06T03:29:00;4.80;;;3.40;;
6638;SDS011;3355;52.882;8.430;2024-01-06T03:31:29;4.73;;;3.40;;
6638;SDS011;3355;52.882;8.430;2024-01-06T03:33:56;4.20;;;3.80;;
6638;SDS011;3355;52.882;8.430;2024-01-06T03:36:23;3.27;;;2.87;;
6638;SDS011;3355;52.882;8.430;2024-01-06T03:38:50;4.40;;;3.30;;
6638;SDS011;3355;52.882;8.430;2024-01-06T03:41:17;4.20;;;3.53;;
6638;SDS011;3355;52.882;8.430;2024-01-06T03:43:44;5.23;;;3.83;;
6638;SDS011;3355;52.882;8.430;2024-01-06T03:46:11;4.37;;;3.43;;
6638;SDS011;3355;52.882;8.430;2024-01-06T03:48:39;3.67;;;2.90;;
6638;SDS011;3355;52.882;8.430;2024-01-06T03:51:07;4.40;;;3.57;;
6638;SDS011;3355;52.882;8.430;2024-01-06T03:53:34;4.90;;;3.70;;
6638;SDS011;3355;52.882;8.430;2024-01-06T03:56:02;3.10;;;2.63;;
6638;SDS011;3355;52.882;8.430;2024-01-06T03:58:29;4.67;;;3.60;;
6638;SDS011;3355;52.882;8.430;2024-01-06T04:00:56;4.27;;;3.43;;
6638;SDS011;3355;52.882;8.430;2024-01-06T04:03:23;8.20;;;3.30;;
6638;SDS011;3355;52.882;8.430;2024-01-06T04:05:51;4.10;;;3.70;;
6638;SDS011;3355;52.882;8.430;2024-01-06T04:08:17;4.30;;;3.83;;
6638;SDS011;3355;52.882;8.430;2024-01-06T04:10:44;3.77;;;3.07;;
6638;SDS011;3355;52.882;8.430;2024-01-06T04:13:11;3.57;;;3.07;;
6638;SDS011;3355;52.882;8.430;2024-01-06T04:15:38;5.27;;;3.60;;
6638;SDS011;3355;52.882;8.430;2024-01-06T04:18:05;5.50;;;3.67;;
6638;SDS011;3355;52.882;8.430;2024-01-06T04:20:34;3.93;;;3.10;;
6638;SDS011;3355;52.882;8.430;2024-01-06T04:23:03;4.83;;;3.43;;
6638;SDS011;3355;52.882;8.430;2024-01-06T04:25:30;4.83;;;3.20;;
6638;SDS011;3355;52.882;8.430;2024-01-06T04:27:56;4.73;;;3.57;;
6638;SDS011;3355;52.882;8.430;2024-01-06T04:30:23;3.73;;;2.70;;
6638;SDS011;3355;52.882;8.430;2024-01-06T04:32:51;4.77;;;3.73;;
6638;SDS011;3355;52.882;8.430;2024-01-06T04:35:19;3.80;;;3.30;;
6638;SDS011;3355;52.882;8.430;2024-01-06T04:37:47;4.03;;;3.43;;
6638;SDS011;3355;52.882;8.430;2024-01-06T04:40:15;4.83;;;3.57;;
6638;SDS011;3355;52.882;8.430;2024-01-06T04:42:42;4.03;;;3.63;;
6638;SDS011;3355;52.882;8.430;2024-01-06T04:45:09;3.83;;;3.47;;
6638;SDS011;3355;52.882;8.430;2024-01-06T04:47:36;4.30;;;3.43;;
6638;SDS011;3355;52.882;8.430;2024-01-06T04:50:04;4.80;;;3.70;;
6638;SDS011;3355;52.882;8.430;2024-01-06T04:52:32;5.20;;;3.37;;
6638;SDS011;3355;52.882;8.430;2024-01-06T04:54:59;3.90;;;2.90;;
6638;SDS011;3355;52.882;8.430;2024-01-06T04:57:28;4.07;;;3.23;;
6638;SDS011;3355;52.882;8.430;2024-01-06T04:59:54;4.50;;;3.33;;
6638;SDS011;3355;52.882;8.430;2024-01-06T05:02:21;4.97;;;3.80;;
6638;SDS011;3355;52.882;8.430;2024-01-06T05:04:48;4.70;;;3.40;;
6638;SDS011;3355;52.882;8.430;2024-01-06T05:07:15;6.70;;;3.50;;
6638;SDS011;3355;52.882;8.430;2024-01-06T05:09:41;4.00;;;3.53;;
6638;SDS011;3355;52.882;8.430;2024-01-06T05:12:08;3.60;;;3.13;;
6638;SDS011;3355;52.882;8.430;2024-01-06T05:14:36;4.93;;;3.50;;
6638;SDS011;3355;52.882;8.430;2024-01-06T05:17:03;4.63;;;4.00;;
6638;SDS011;3355;52.882;8.430;2024-01-06T05:19:30;3.67;;;3.13;;
6638;SDS011;3355;52.882;8.430;2024-01-06T05:21:57;4.30;;;3.50;;
6638;SDS011;3355;52.882;8.430;2024-01-06T05:24:24;4.00;;;3.60;;
6638;SDS011;3355;52.882;8.430;2024-01-06T05:26:50;3.97;;;3.43;;
6638;SDS011;3355;52.882;8.430;2024-01-06T05:29:17;3.90;;;3.50;;
6638;SDS011;3355;52.882;8.430;2024-01-06T05:31:45;3.80;;;3.30;;
6638;SDS011;3355;52.882;8.430;2024-01-06T05:34:15;5.27;;;3.30;;
6638;SDS011;3355;52.882;8.430;2024-01-06T05:36:41;3.67;;;3.00;;
6638;SDS011;3355;52.882;8.430;2024-01-06T05:39:08;3.77;;;3.33;;
6638;SDS011;3355;52.882;8.430;2024-01-06T05:41:38;3.07;;;2.50;;
6638;SDS011;3355;52.882;8.430;2024-01-06T05:44:05;4.00;;;3.50;;
6638;SDS011;3355;52.882;8.430;2024-01-06T05:46:33;4.07;;;2.80;;
6638;SDS011;3355;52.882;8.430;2024-01-06T05:49:02;3.30;;;2.90;;
6638;SDS011;3355;52.882;8.430;2024-01-06T05:51:29;4.67;;;3.00;;
6638;SDS011;3355;52.882;8.430;2024-01-06T05:53:56;3.53;;;2.80;;
6638;SDS011;3355;52.882;8.430;2024-01-06T05:56:23;3.67;;;3.03;;
6638;SDS011;3355;52.882;8.430;2024-01-06T05:58:51;3.67;;;3.00;;
6638;SDS011;3355;52.882;8.430;2024-01-06T06:01:18;3.80;;;2.97;;
6638;SDS011;3355;52.882;8.430;2024-01-06T06:03:46;4.30;;;3.27;;
6638;SDS011;3355;52.882;8.430;2024-01-06T06:06:14;4.43;;;3.33;;
6638;SDS011;3355;52.882;8.430;2024-01-06T06:08:41;4.57;;;3.40;;
6638;SDS011;3355;52.882;8.430;2024-01-06T06:11:08;4.53;;;3.80;;
6638;SDS011;3355;52.882;8.430;2024-01-06T06:13:37;4.10;;;3.33;;
6638;SDS011;3355;52.882;8.430;2024-01-06T06:16:05;3.97;;;3.30;;
6638;SDS011;3355;52.882;8.430;2024-01-06T06:18:32;4.53;;;2.87;;
6638;SDS011;3355;52.882;8.430;2024-01-06T06:20:59;3.93;;;2.87;;
6638;SDS011;3355;52.882;8.430;2024-01-06T06:23:30;3.63;;;2.70;;
6638;SDS011;3355;52.882;8.430;2024-01-06T06:25:56;2.70;;;2.27;;
6638;SDS011;3355;52.882;8.430;2024-01-06T06:28:24;4.07;;;2.50;;
6638;SDS011;3355;52.882;8.430;2024-01-06T06:30:51;3.13;;;2.83;;
6638;SDS011;3355;52.882;8.430;2024-01-06T06:33:18;3.47;;;2.43;;
6638;SDS011;3355;52.882;8.430;2024-01-06T06:35:45;3.10;;;2.73;;
6638;SDS011;3355;52.882;8.430;2024-01-06T06:38:12;3.23;;;2.60;;
6638;SDS011;3355;52.882;8.430;2024-01-06T06:40:40;3.13;;;2.70;;
6638;SDS011;3355;52.882;8.430;2024-01-06T06:43:07;3.40;;;2.70;;
6638;SDS011;3355;52.882;8.430;2024-01-06T06:45:34;3.73;;;2.77;;
6638;SDS011;3355;52.882;8.430;2024-01-06T06:48:01;3.60;;;2.73;;
6638;SDS011;3355;52.882;8.430;2024-01-06T06:50:27;4.20;;;2.60;;
6638;SDS011;3355;52.882;8.430;2024-01-06T06:52:54;2.50;;;2.30;;
6638;SDS011;3355;52.882;8.430;2024-01-06T06:55:21;3.17;;;2.87;;
6638;SDS011;3355;52.882;8.430;2024-01-06T06:57:50;2.70;;;2.43;;
6638;SDS011;3355;52.882;8.430;2024-01-06T07:00:17;3.07;;;2.77;;
6638;SDS011;3355;52.882;8.430;2024-01-06T07:02:44;4.20;;;3.43;;
6638;SDS011;3355;52.882;8.430;2024-01-06T07:05:11;5.67;;;3.60;;
6638;SDS011;3355;52.882;8.430;2024-01-06T07:07:38;5.20;;;3.90;;
6638;SDS011;3355;52.882;8.430;2024-01-06T07:10:06;4.53;;;3.40;;
6638;SDS011;3355;52.882;8.430;2024-01-06T07:12:33;5.10;;;4.10;;
6638;SDS011;3355;52.882;8.430;2024-01-06T07:15:02;4.00;;;3.60;;
6638;SDS011;3355;52.882;8.430;2024-01-06T07:17:29;3.90;;;3.50;;
6638;SDS011;3355;52.882;8.430;2024-01-06T07:19:57;4.43;;;3.20;;
6638;SDS011;3355;52.882;8.430;2024-01-06T07:22:24;4.80;;;4.30;;
6638;SDS011;3355;52.882;8.430;2024-01-06T07:24:51;3.93;;;3.53;;
6638;SDS011;3355;52.882;8.430;2024-01-06T07:27:18;4.80;;;3.77;;
6638;SDS011;3355;52.882;8.430;2024-01-06T07:29:45;4.00;;;3.60;;
6638;SDS011;3355;52.882;8.430;2024-01-06T07:32:14;3.87;;;3.47;;
6638;SDS011;3355;52.882;8.430;2024-01-06T07:34:41;4.07;;;3.57;;
6638;SDS011;3355;52.882;8.430;2024-01-06T07:37:08;4.67;;;4.00;;
6638;SDS011;3355;52.882;8.430;2024-01-06T07:39:35;4.33;;;3.77;;
6638;SDS011;3355;52.882;8.430;2024-01-06T07:42:02;4.43;;;3.70;;
6638;SDS011;3355;52.882;8.430;2024-01-06T07:44:29;4.87;;;4.30;;
6638;SDS011;3355;52.882;8.430;2024-01-06T07:46:56;4.40;;;3.67;;
6638;SDS011;3355;52.882;8.430;2024-01-06T07:49:25;4.40;;;3.97;;
6638;SDS011;3355;52.882;8.430;2024-01-06T07:51:51;4.73;;;3.70;;
6638;SDS011;3355;52.882;8.430;2024-01-06T07:54:18;5.20;;;3.63;;
6638;SDS011;3355;52.882;8.430;2024-01-06T07:56:45;5.90;;;4.30;;
6638;SDS011;3355;52.882;8.430;2024-01-06T07:59:12;5.27;;;3.90;;
6638;SDS011;3355;52.882;8.430;2024-01-06T08:01:40;5.00;;;3.77;;
6638;SDS011;3355;52.882;8.430;2024-01-06T08:04:08;4.07;;;3.67;;
6638;SDS011;3355;52.882;8.430;2024-01-06T08:06:36;4.30;;;3.70;;
6638;SDS011;3355;52.882;8.430;2024-01-06T08:09:03;3.33;;;2.93;;
6638;SDS011;3355;52.882;8.430;2024-01-06T08:11:31;4.97;;;3.60;;
6638;SDS011;3355;52.882;8.430;2024-01-06T08:13:58;4.13;;;3.70;;
6638;SDS011;3355;52.882;8.430;2024-01-06T08:16:25;4.53;;;3.33;;
6638;SDS011;3355;52.882;8.430;2024-01-06T08:18:52;5.07;;;4.00;;
6638;SDS011;3355;52.882;8.430;2024-01-06T08:21:19;4.00;;;3.50;;
6638;SDS011;3355;52.882;8.430;2024-01-06T08:23:47;4.00;;;3.60;;
6638;SDS011;3355;52.882;8.430;2024-01-06T08:26:14;3.67;;;3.00;;
6638;SDS011;3355;52.882;8.430;2024-01-06T08:28:40;5.63;;;4.30;;
6638;SDS011;3355;52.882;8.430;2024-01-06T08:31:07;4.17;;;3.67;;
6638;SDS011;3355;52.882;8.430;2024-01-06T08:33:34;4.70;;;3.70;;
6638;SDS011;3355;52.882;8.430;2024-01-06T08:36:00;3.87;;;3.47;;
6638;SDS011;3355;52.882;8.430;2024-01-06T08:38:27;6.37;;;3.00;;
6638;SDS011;3355;52.882;8.430;2024-01-06T08:40:56;4.00;;;3.33;;
6638;SDS011;3355;52.882;8.430;2024-01-06T08:43:22;3.90;;;2.97;;
6638;SDS011;3355;52.882;8.430;2024-01-06T08:45:49;4.60;;;3.20;;
6638;SDS011;3355;52.882;8.430;2024-01-06T08:48:17;4.80;;;3.10;;
6638;SDS011;3355;52.882;8.430;2024-01-06T08:50:43;4.23;;;3.63;;
6638;SDS011;3355;52.882;8.430;2024-01-06T08:53:11;4.20;;;3.43;;
6638;SDS011;3355;52.882;8.430;2024-01-06T08:55:38;6.20;;;4.10;;
6638;SDS011;3355;52.882;8.430;2024-01-06T08:58:06;5.60;;;4.27;;
6638;SDS011;3355;52.882;8.430;2024-01-06T09:00:33;5.47;;;4.03;;
6638;SDS011;3355;52.882;8.430;2024-01-06T09:02:59;3.50;;;3.20;;
6638;SDS011;3355;52.882;8.430;2024-01-06T09:05:26;8.13;;;3.23;;
6638;SDS011;3355;52.882;8.430;2024-01-06T09:07:53;4.90;;;4.27;;
6638;SDS011;3355;52.882;8.430;2024-01-06T09:10:20;4.60;;;3.73;;
6638;SDS011;3355;52.882;8.430;2024-01-06T09:12:47;5.70;;;4.20;;
6638;SDS011;3355;52.882;8.430;2024-01-06T09:15:15;4.87;;;4.30;;
6638;SDS011;3355;52.882;8.430;2024-01-06T09:17:42;4.37;;;3.80;;
6638;SDS011;3355;52.882;8.430;2024-01-06T09:20:09;5.50;;;4.33;;
6638;SDS011;3355;52.882;8.430;2024-01-06T09:22:37;5.10;;;4.23;;
6638;SDS011;3355;52.882;8.430;2024-01-06T09:25:05;7.40;;;5.27;;
6638;SDS011;3355;52.882;8.430;2024-01-06T09:27:32;5.70;;;4.30;;
6638;SDS011;3355;52.882;8.430;2024-01-06T09:29:59;5.30;;;4.80;;
6638;SDS011;3355;52.882;8.430;2024-01-06T09:32:29;5.30;;;4.60;;
6638;SDS011;3355;52.882;8.430;2024-01-06T09:34:56;6.67;;;4.77;;
6638;SDS011;3355;52.882;8.430;2024-01-06T09:37:23;6.30;;;5.17;;
6638;SDS011;3355;52.882;8.430;2024-01-06T09:39:50;8.07;;;6.13;;
6638;SDS011;3355;52.882;8.430;2024-01-06T09:42:17;6.47;;;5.10;;
6638;SDS011;3355;52.882;8.430;2024-01-06T09:44:44;8.57;;;5.90;;
6638;SDS011;3355;52.882;8.430;2024-01-06T09:47:11;6.63;;;5.00;;
6638;SDS011;3355;52.882;8.430;2024-01-06T09:49:41;9.07;;;6.23;;
6638;SDS011;3355;52.882;8.430;2024-01-06T09:52:20;9.17;;;6.30;;
6638;SDS011;3355;52.882;8.430;2024-01-06T09:54:49;8.77;;;6.13;;
6638;SDS011;3355;52.882;8.430;2024-01-06T09:57:20;6.23;;;5.40;;
6638;SDS011;3355;52.882;8.430;2024-01-06T09:59:47;8.27;;;5.70;;
6638;SDS011;3355;52.882;8.430;2024-01-06T10:02:14;7.27;;;5.47;;
6638;SDS011;3355;52.882;8.430;2024-01-06T10:04:44;8.17;;;5.97;;
6638;SDS011;3355;52.882;8.430;2024-01-06T10:07:11;9.00;;;5.40;;
6638;SDS011;3355;52.882;8.430;2024-01-06T10:09:39;8.87;;;6.30;;
6638;SDS011;3355;52.882;8.430;2024-01-06T10:12:07;7.73;;;6.40;;
6638;SDS011;3355;52.882;8.430;2024-01-06T10:14:34;9.43;;;6.40;;
6638;SDS011;3355;52.882;8.430;2024-01-06T10:17:01;6.83;;;6.13;;
6638;SDS011;3355;52.882;8.430;2024-01-06T10:19:28;6.70;;;6.00;;
6638;SDS011;3355;52.882;8.430;2024-01-06T10:21:57;7.97;;;6.10;;
6638;SDS011;3355;52.882;8.430;2024-01-06T10:24:27;9.50;;;6.37;;
6638;SDS011;3355;52.882;8.430;2024-01-06T10:26:54;7.83;;;6.80;;
6638;SDS011;3355;52.882;8.430;2024-01-06T10:29:21;7.20;;;6.27;;
6638;SDS011;3355;52.882;8.430;2024-01-06T10:31:49;10.60;;;7.17;;
6638;SDS011;3355;52.882;8.430;2024-01-06T10:34:16;8.03;;;6.50;;
6638;SDS011;3355;52.882;8.430;2024-01-06T10:36:43;9.10;;;7.00;;
6638;SDS011;3355;52.882;8.430;2024-01-06T10:39:11;8.10;;;6.33;;
6638;SDS011;3355;52.882;8.430;2024-01-06T10:41:40;10.50;;;8.07;;
6638;SDS011;3355;52.882;8.430;2024-01-06T10:44:08;9.00;;;7.77;;
6638;SDS011;3355;52.882;8.430;2024-01-06T10:46:36;9.33;;;6.90;;
6638;SDS011;3355;52.882;8.430;2024-01-06T10:49:03;9.10;;;7.00;;
6638;SDS011;3355;52.882;8.430;2024-01-06T10:51:33;11.00;;;8.00;;
6638;SDS011;3355;52.882;8.430;2024-01-06T10:54:01;11.90;;;8.67;;
6638;SDS011;3355;52.882;8.430;2024-01-06T10:56:30;8.70;;;6.50;;
6638;SDS011;3355;52.882;8.430;2024-01-06T13:32:36;16.53;;;12.13;;
6638;SDS011;3355;52.882;8.430;2024-01-06T13:35:27;20.03;;;14.27;;
6638;SDS011;3355;52.882;8.430;2024-01-06T13:38:20;15.60;;;12.00;;
6638;SDS011;3355;52.882;8.430;2024-01-06T13:44:49;16.87;;;12.17;;
6638;SDS011;3355;52.882;8.430;2024-01-06T13:50:25;21.07;;;13.50;;
6638;SDS011;3355;52.882;8.430;2024-01-06T13:53:07;19.60;;;11.93;;
6638;SDS011;3355;52.882;8.430;2024-01-06T13:55:35;17.23;;;12.57;;
6638;SDS011;3355;52.882;8.430;2024-01-06T13:58:05;27.30;;;13.80;;
6638;SDS011;3355;52.882;8.430;2024-01-06T14:00:34;15.20;;;11.30;;
6638;SDS011;3355;52.882;8.430;2024-01-06T14:03:05;16.20;;;12.23;;
6638;SDS011;3355;52.882;8.430;2024-01-06T14:05:36;21.47;;;13.47;;
6638;SDS011;3355;52.882;8.430;2024-01-06T14:08:06;18.40;;;12.37;;
6638;SDS011;3355;52.882;8.430;2024-01-06T14:10:42;16.77;;;12.10;;
6638;SDS011;3355;52.882;8.430;2024-01-06T14:13:18;15.00;;;12.20;;
6638;SDS011;3355;52.882;8.430;2024-01-06T14:15:59;16.77;;;11.57;;
6638;SDS011;3355;52.882;8.430;2024-01-06T14:21:37;17.03;;;12.27;;
6638;SDS011;3355;52.882;8.430;2024-01-06T14:24:19;17.57;;;12.23;;
6638;SDS011;3355;52.882;8.430;2024-01-06T14:26:48;14.67;;;11.33;;
6638;SDS011;3355;52.882;8.430;2024-01-06T14:29:30;19.70;;;13.43;;
6638;SDS011;3355;52.882;8.430;2024-01-06T14:32:05;18.43;;;11.80;;
6638;SDS011;3355;52.882;8.430;2024-01-06T14:34:44;16.20;;;11.93;;
6638;SDS011;3355;52.882;8.430;2024-01-06T14:37:31;17.33;;;12.60;;
6638;SDS011;3355;52.882;8.430;2024-01-06T14:40:12;16.63;;;12.20;;
6638;SDS011;3355;52.882;8.430;2024-01-06T14:43:00;12.67;;;11.23;;
6638;SDS011;3355;52.882;8.430;2024-01-06T14:45:30;15.03;;;9.83;;
6638;SDS011;3355;52.882;8.430;2024-01-06T14:47:58;13.87;;;10.67;;
6638;SDS011;3355;52.882;8.430;2024-01-06T14:50:47;11.90;;;9.50;;
6638;SDS011;3355;52.882;8.430;2024-01-06T14:53:23;11.97;;;9.60;;
6638;SDS011;3355;52.882;8.430;2024-01-06T14:55:55;15.27;;;10.47;;
6638;SDS011;3355;52.882;8.430;2024-01-06T14:58:33;15.40;;;11.80;;
6638;SDS011;3355;52.882;8.430;2024-01-06T15:01:06;15.33;;;11.63;;
6638;SDS011;3355;52.882;8.430;2024-01-06T15:06:25;12.00;;;10.37;;
6638;SDS011;3355;52.882;8.430;2024-01-06T15:09:08;15.93;;;9.67;;
6638;SDS011;3355;52.882;8.430;2024-01-06T15:11:43;14.57;;;9.23;;
6638;SDS011;3355;52.882;8.430;2024-01-06T15:14:35;12.30;;;9.60;;
6638;SDS011;3355;52.882;8.430;2024-01-06T15:17:20;11.57;;;8.77;;
6638;SDS011;3355;52.882;8.430;2024-01-06T15:19:54;12.90;;;9.70;;
6638;SDS011;3355;52.882;8.430;2024-01-06T15:22:27;12.63;;;8.50;;
6638;SDS011;3355;52.882;8.430;2024-01-06T15:24:57;13.17;;;8.57;;
6638;SDS011;3355;52.882;8.430;2024-01-06T15:27:30;14.20;;;9.17;;
6638;SDS011;3355;52.882;8.430;2024-01-06T15:30:03;12.63;;;9.27;;
6638;SDS011;3355;52.882;8.430;2024-01-06T15:32:34;11.93;;;8.57;;
6638;SDS011;3355;52.882;8.430;2024-01-06T15:35:09;12.60;;;9.37;;
6638;SDS011;3355;52.882;8.430;2024-01-06T15:37:44;13.23;;;9.30;;
6638;SDS011;3355;52.882;8.430;2024-01-06T15:40:13;11.80;;;8.80;;
6638;SDS011;3355;52.882;8.430;2024-01-06T15:42:45;14.00;;;9.87;;
6638;SDS011;3355;52.882;8.430;2024-01-06T15:45:16;13.00;;;9.43;;
6638;SDS011;3355;52.882;8.430;2024-01-06T15:47:43;12.37;;;9.20;;
6638;SDS011;3355;52.882;8.430;2024-01-06T15:50:12;12.60;;;8.87;;
6638;SDS011;3355;52.882;8.430;2024-01-06T15:52:52;10.20;;;9.10;;
6638;SDS011;3355;52.882;8.430;2024-01-06T15:55:21;12.60;;;9.40;;
6638;SDS011;3355;52.882;8.430;2024-01-06T15:58:01;15.07;;;11.07;;
6638;SDS011;3355;52.882;8.430;2024-01-06T16:00:30;13.97;;;10.13;;
6638;SDS011;3355;52.882;8.430;2024-01-06T16:03:04;12.70;;;10.13;;
6638;SDS011;3355;52.882;8.430;2024-01-06T16:05:36;11.77;;;9.93;;
6638;SDS011;3355;52.882;8.430;2024-01-06T16:08:21;12.83;;;9.80;;
6638;SDS011;3355;52.882;8.430;2024-01-06T16:10:50;14.43;;;10.60;;
6638;SDS011;3355;52.882;8.430;2024-01-06T16:13:32;12.50;;;9.70;;
6638;SDS011;3355;52.882;8.430;2024-01-06T16:16:00;14.23;;;10.47;;
6638;SDS011;3355;52.882;8.430;2024-01-06T16:18:31;12.67;;;8.93;;
6638;SDS011;3355;52.882;8.430;2024-01-06T16:20:59;16.40;;;11.50;;
6638;SDS011;3355;52.882;8.430;2024-01-06T16:23:38;12.00;;;10.00;;
6638;SDS011;3355;52.882;8.430;2024-01-06T16:26:08;12.97;;;9.80;;
6638;SDS011;3355;52.882;8.430;2024-01-06T16:28:41;16.83;;;11.00;;
6638;SDS011;3355;52.882;8.430;2024-01-06T16:31:08;14.37;;;11.03;;
6638;SDS011;3355;52.882;8.430;2024-01-06T16:33:38;17.10;;;11.20;;
6638;SDS011;3355;52.882;8.430;2024-01-06T16:36:12;18.23;;;10.37;;
6638;SDS011;3355;52.882;8.430;2024-01-06T16:38:45;14.30;;;9.90;;
6638;SDS011;3355;52.882;8.430;2024-01-06T16:41:16;14.17;;;9.37;;
6638;SDS011;3355;52.882;8.430;2024-01-06T16:43:44;15.57;;;11.43;;
6638;SDS011;3355;52.882;8.430;2024-01-06T16:46:14;17.70;;;13.07;;
6638;SDS011;3355;52.882;8.430;2024-01-06T16:48:42;16.40;;;11.53;;
6638;SDS011;3355;52.882;8.430;2024-01-06T16:51:12;13.33;;;10.37;;
6638;SDS011;3355;52.882;8.430;2024-01-06T16:53:40;13.73;;;10.70;;
6638;SDS011;3355;52.882;8.430;2024-01-06T16:56:19;17.13;;;12.73;;
6638;SDS011;3355;52.882;8.430;2024-01-06T16:58:49;18.03;;;12.43;;
6638;SDS011;3355;52.882;8.430;2024-01-06T17:01:20;17.33;;;12.40;;
6638;SDS011;3355;52.882;8.430;2024-01-06T17:03:51;14.83;;;12.53;;
6638;SDS011;3355;52.882;8.430;2024-01-06T17:06:26;18.50;;;13.40;;
6638;SDS011;3355;52.882;8.430;2024-01-06T17:08:57;14.23;;;11.00;;
6638;SDS011;3355;52.882;8.430;2024-01-06T17:11:37;13.27;;;10.27;;
6638;SDS011;3355;52.882;8.430;2024-01-06T17:14:09;15.00;;;10.90;;
6638;SDS011;3355;52.882;8.430;2024-01-06T17:16:40;15.70;;;10.20;;
6638;SDS011;3355;52.882;8.430;2024-01-06T17:19:09;12.83;;;9.20;;
6638;SDS011;3355;52.882;8.430;2024-01-06T17:21:40;13.23;;;10.30;;
6638;SDS011;3355;52.882;8.430;2024-01-06T17:24:17;13.60;;;9.83;;
6638;SDS011;3355;52.882;8.430;2024-01-06T17:26:47;13.90;;;10.37;;
6638;SDS011;3355;52.882;8.430;2024-01-06T17:29:16;14.13;;;10.27;;
6638;SDS011;3355;52.882;8.430;2024-01-06T17:31:55;15.90;;;10.97;;
6638;SDS011;3355;52.882;8.430;2024-01-06T17:34:22;12.40;;;10.53;;
6638;SDS011;3355;52.882;8.430;2024-01-06T17:36:50;14.73;;;11.07;;
6638;SDS011;3355;52.882;8.430;2024-01-06T17:39:22;12.80;;;10.23;;
6638;SDS011;3355;52.882;8.430;2024-01-06T17:41:58;16.00;;;11.23;;
6638;SDS011;3355;52.882;8.430;2024-01-06T17:44:26;15.00;;;10.47;;
6638;SDS011;3355;52.882;8.430;2024-01-06T17:46:56;14.10;;;11.00;;
6638;SDS011;3355;52.882;8.430;2024-01-06T17:49:24;12.90;;;10.50;;
6638;SDS011;3355;52.882;8.430;2024-01-06T17:51:52;17.27;;;10.90;;
6638;SDS011;3355;52.882;8.430;2024-01-06T17:54:23;14.20;;;10.40;;
6638;SDS011;3355;52.882;8.430;2024-01-06T17:57:09;15.90;;;10.50;;
6638;SDS011;3355;52.882;8.430;2024-01-06T17:59:42;11.70;;;8.90;;
6638;SDS011;3355;52.882;8.430;2024-01-06T18:02:10;14.10;;;10.63;;
6638;SDS011;3355;52.882;8.430;2024-01-06T18:04:41;16.57;;;11.17;;